createdAt,value
2023-03-27T00:00:34.404Z,5.50
2023-03-27T00:03:20.760Z,5.57
2023-03-27T00:06:16.353Z,5.38
2023-03-27T00:09:03.845Z,5.90
2023-03-27T00:11:49.553Z,6.25
2023-03-27T00:14:36.368Z,5.93
2023-03-27T00:17:23.010Z,5.25
2023-03-27T00:20:09.343Z,5.35
2023-03-27T00:22:59.563Z,4.50
2023-03-27T00:25:50.895Z,3.42
2023-03-27T00:28:36.678Z,3.95
2023-03-27T00:31:22.476Z,2.95
2023-03-27T00:34:08.740Z,3.72
2023-03-27T00:36:54.546Z,4.15
2023-03-27T00:39:41.943Z,3.53
2023-03-27T00:42:28.277Z,3.47
2023-03-27T00:45:22.776Z,3.80
2023-03-27T00:48:09.330Z,3.40
2023-03-27T00:50:57.411Z,2.90
2023-03-27T00:53:44.582Z,3.05
2023-03-27T00:56:30.802Z,2.75
2023-03-27T00:59:19.908Z,2.20
2023-03-27T01:02:06.909Z,2.30
2023-03-27T01:04:53.476Z,2.60
2023-03-27T01:07:40.760Z,2.90
2023-03-27T01:11:27.706Z,2.70
2023-03-27T01:17:14.837Z,2.70
2023-03-27T01:20:34.856Z,2.47
2023-03-27T01:23:59.954Z,2.53
2023-03-27T01:27:16.370Z,2.30
2023-03-27T01:30:23.123Z,2.47
2023-03-27T01:33:40.409Z,2.00
2023-03-27T01:36:27.465Z,2.30
2023-03-27T01:39:37.831Z,2.00
2023-03-27T01:42:30.961Z,2.22
2023-03-27T01:45:23.880Z,2.97
2023-03-27T01:48:19.852Z,2.40
2023-03-27T01:51:22.313Z,2.20
2023-03-27T01:54:17.281Z,2.33
2023-03-27T01:57:16.527Z,2.55
2023-03-27T02:00:17.296Z,2.63
2023-03-27T02:03:41.697Z,2.75
2023-03-27T02:06:31.844Z,2.45
2023-03-27T02:09:17.777Z,2.78
2023-03-27T02:12:07.664Z,1.88
2023-03-27T02:14:55.574Z,2.00
2023-03-27T02:17:48.379Z,2.20
2023-03-27T02:20:36.974Z,1.83
2023-03-27T02:23:24.326Z,1.58
2023-03-27T02:26:12.010Z,2.00
2023-03-27T02:28:57.717Z,1.63
2023-03-27T02:31:53.980Z,1.88
2023-03-27T02:34:58.926Z,2.00
2023-03-27T02:38:01.299Z,1.88
2023-03-27T02:41:25.841Z,1.92
2023-03-27T02:44:46.585Z,1.65
2023-03-27T02:47:36.387Z,1.92
2023-03-27T02:50:27.778Z,2.83
2023-03-27T02:53:22.979Z,1.90
2023-03-27T02:56:09.381Z,2.08
2023-03-27T02:59:04.036Z,1.88
2023-03-27T03:01:55.800Z,2.10
2023-03-27T03:04:57.178Z,1.80
2023-03-27T03:07:48.885Z,1.67
2023-03-27T03:10:35.276Z,1.70
2023-03-27T03:13:20.906Z,1.90
2023-03-27T03:16:07.661Z,2.22
2023-03-27T03:18:53.349Z,2.38
2023-03-27T03:21:39.866Z,2.40
2023-03-27T03:24:29.795Z,2.08
2023-03-27T03:27:21.012Z,1.95
2023-03-27T03:30:22.131Z,1.90
2023-03-27T03:33:18.024Z,2.10
2023-03-27T03:36:04.646Z,2.47
2023-03-27T03:38:52.824Z,2.20
2023-03-27T03:41:38.606Z,3.35
2023-03-27T03:44:24.292Z,3.30
2023-03-27T03:47:10.116Z,3.08
2023-03-27T03:49:55.873Z,3.25
2023-03-27T03:52:42.538Z,2.20
2023-03-27T03:55:28.460Z,2.60
2023-03-27T03:58:14.559Z,3.30
2023-03-27T04:01:00.224Z,4.03
2023-03-27T04:03:58.045Z,4.45
2023-03-27T04:06:46.154Z,5.57
2023-03-27T04:09:32.760Z,6.20
2023-03-27T04:12:33.624Z,3.60
2023-03-27T04:15:20.716Z,2.63
2023-03-27T04:18:32.916Z,2.00
2023-03-27T04:21:22.374Z,2.20
2023-03-27T04:24:08.397Z,2.95
2023-03-27T04:27:04.805Z,2.50
2023-03-27T04:29:58.710Z,2.58
2023-03-27T04:32:52.264Z,2.53
2023-03-27T04:36:06.115Z,3.03
2023-03-27T04:39:16.700Z,3.22
2023-03-27T04:42:03.047Z,3.70
2023-03-27T04:44:52.440Z,4.38
2023-03-27T04:47:38.727Z,2.35
2023-03-27T04:50:25.617Z,2.88
2023-03-27T04:53:11.456Z,2.13
2023-03-27T04:56:03.608Z,2.25
2023-03-27T04:58:53.035Z,1.95
2023-03-27T05:01:38.999Z,2.40
2023-03-27T05:04:32.154Z,2.03
2023-03-27T05:07:34.373Z,1.75
2023-03-27T05:10:23.039Z,2.28
2023-03-27T05:13:10.288Z,2.70
2023-03-27T05:15:55.998Z,2.40
2023-03-27T05:18:45.255Z,2.90
2023-03-27T05:21:31.100Z,2.15
2023-03-27T05:24:16.906Z,5.25
2023-03-27T05:27:04.736Z,2.15
2023-03-27T05:29:51.370Z,1.95
2023-03-27T05:32:38.148Z,1.95
2023-03-27T05:35:34.737Z,1.90
2023-03-27T05:38:22.822Z,2.28
2023-03-27T05:41:28.882Z,2.30
2023-03-27T05:44:14.811Z,2.20
2023-03-27T05:47:03.679Z,3.20
2023-03-27T05:49:50.867Z,2.42
2023-03-27T05:52:36.600Z,2.30
2023-03-27T05:55:22.820Z,2.08
2023-03-27T05:58:11.888Z,1.92
2023-03-27T06:00:58.635Z,2.17
2023-03-27T06:03:56.321Z,2.20
2023-03-27T06:06:55.576Z,2.08
2023-03-27T06:09:41.466Z,2.30
2023-03-27T06:13:06.657Z,2.17
2023-03-27T06:16:20.956Z,1.95
2023-03-27T06:19:36.837Z,2.60
2023-03-27T06:22:23.606Z,3.10
2023-03-27T06:25:10.464Z,4.72
2023-03-27T06:27:56.789Z,6.55
2023-03-27T06:30:43.000Z,8.05
2023-03-27T06:33:52.155Z,5.80
2023-03-27T06:37:05.637Z,4.13
2023-03-27T06:42:54.276Z,2.85
2023-03-27T06:45:50.934Z,3.67
2023-03-27T06:48:55.613Z,3.97
2023-03-27T06:51:48.932Z,3.28
2023-03-27T06:54:35.704Z,2.80
2023-03-27T06:57:21.879Z,2.95
2023-03-27T07:00:17.040Z,3.00
2023-03-27T07:03:26.243Z,3.30
2023-03-27T07:06:11.949Z,2.78
2023-03-27T07:09:23.885Z,3.30
2023-03-27T07:12:20.830Z,2.38
2023-03-27T07:15:08.279Z,2.50
2023-03-27T07:18:00.521Z,3.05
2023-03-27T07:20:48.113Z,4.20
2023-03-27T07:23:36.787Z,3.30
2023-03-27T07:26:27.082Z,3.55
2023-03-27T07:29:29.550Z,2.50
2023-03-27T07:32:25.801Z,2.70
2023-03-27T07:35:22.048Z,2.88
2023-03-27T07:38:26.842Z,3.13
2023-03-27T07:41:38.853Z,1.92
2023-03-27T07:44:39.422Z,1.60
2023-03-27T07:47:28.569Z,1.52
2023-03-27T07:50:19.180Z,1.95
2023-03-27T07:53:08.582Z,1.80
2023-03-27T07:56:00.925Z,1.70
2023-03-27T07:58:47.364Z,1.50
2023-03-27T08:01:38.689Z,1.30
2023-03-27T08:04:25.470Z,1.30
2023-03-27T08:07:25.921Z,1.70
2023-03-27T08:10:20.825Z,0.93
2023-03-27T08:13:18.495Z,1.42
2023-03-27T08:16:05.639Z,1.00
2023-03-27T08:18:51.755Z,1.48
2023-03-27T08:21:37.446Z,1.63
2023-03-27T08:24:23.175Z,1.88
2023-03-27T08:27:29.345Z,1.90
2023-03-27T08:30:17.028Z,1.52
2023-03-27T08:33:03.864Z,0.98
2023-03-27T08:35:51.287Z,2.30
2023-03-27T08:38:39.603Z,2.50
2023-03-27T08:41:43.353Z,1.50
2023-03-27T08:44:35.560Z,1.90
2023-03-27T08:47:44.503Z,2.08
2023-03-27T08:50:41.581Z,2.33
2023-03-27T08:53:52.071Z,1.77
2023-03-27T08:56:43.022Z,1.58
2023-03-27T08:59:31.480Z,1.50
2023-03-27T09:02:40.793Z,1.80
2023-03-27T09:05:42.596Z,1.42
2023-03-27T09:08:34.899Z,1.65
2023-03-27T09:11:54.756Z,1.30
2023-03-27T09:14:56.786Z,1.30
2023-03-27T09:18:02.187Z,1.55
2023-03-27T09:21:04.824Z,11.93
2023-03-27T09:23:54.170Z,12.05
2023-03-27T09:27:32.652Z,4.13
2023-03-27T09:30:37.599Z,1.58
2023-03-27T09:33:33.598Z,2.92
2023-03-27T09:36:19.465Z,2.42
2023-03-27T09:39:08.186Z,3.00
2023-03-27T09:42:20.295Z,5.68
2023-03-27T09:45:08.106Z,4.07
2023-03-27T09:48:36.241Z,3.38
2023-03-27T09:51:53.920Z,3.05
2023-03-27T09:54:53.954Z,7.15
2023-03-27T09:57:49.174Z,6.13
2023-03-27T10:00:36.530Z,3.95
2023-03-27T10:03:24.852Z,3.65
2023-03-27T10:06:44.643Z,2.88
2023-03-27T10:09:41.077Z,3.92
2023-03-27T10:12:30.733Z,3.33
2023-03-27T10:15:44.783Z,3.03
2023-03-27T10:18:48.148Z,4.63
2023-03-27T10:21:42.103Z,4.35
2023-03-27T10:24:36.005Z,4.03
2023-03-27T10:27:35.949Z,3.40
2023-03-27T10:30:41.007Z,4.80
2023-03-27T10:33:47.436Z,4.22
2023-03-27T10:37:05.043Z,4.57
2023-03-27T10:39:53.056Z,4.68
2023-03-27T10:42:51.007Z,4.35
2023-03-27T10:45:49.907Z,5.07
2023-03-27T10:48:48.098Z,4.63
2023-03-27T10:51:53.567Z,11.18
2023-03-27T10:54:59.528Z,3.28
2023-03-27T10:57:52.585Z,4.90
2023-03-27T11:00:46.734Z,3.60
2023-03-27T11:03:40.071Z,4.28
2023-03-27T11:06:32.420Z,5.03
2023-03-27T11:09:24.582Z,4.90
2023-03-27T11:12:39.121Z,3.53
2023-03-27T11:15:29.376Z,3.78
2023-03-27T11:18:28.947Z,3.85
2023-03-27T11:21:43.971Z,5.47
2023-03-27T11:27:38.510Z,7.15
2023-03-27T11:30:24.826Z,7.40
2023-03-27T11:33:42.088Z,6.32
2023-03-27T11:36:39.828Z,6.00
2023-03-27T11:39:55.340Z,5.85
2023-03-27T11:42:43.845Z,5.47
2023-03-27T11:45:54.107Z,3.95
2023-03-27T11:48:58.391Z,3.80
2023-03-27T11:51:59.642Z,4.10
2023-03-27T11:55:51.746Z,3.40
2023-03-27T11:59:08.156Z,3.70
2023-03-27T12:01:57.840Z,3.42
2023-03-27T12:04:50.503Z,4.53
2023-03-27T12:07:59.742Z,4.25
2023-03-27T12:10:49.124Z,4.60
2023-03-27T12:14:02.643Z,5.53
2023-03-27T12:17:05.164Z,4.93
2023-03-27T12:20:19.145Z,4.10
2023-03-27T12:23:37.796Z,3.38
2023-03-27T12:26:57.747Z,5.20
2023-03-27T12:30:18.168Z,4.05
2023-03-27T12:33:32.392Z,4.63
2023-03-27T12:36:20.894Z,3.97
2023-03-27T12:39:20.180Z,3.88
2023-03-27T12:42:22.827Z,3.30
2023-03-27T12:45:18.451Z,4.90
2023-03-27T12:48:11.827Z,4.20
2023-03-27T12:51:12.929Z,3.25
2023-03-27T12:53:59.513Z,3.95
2023-03-27T12:57:25.082Z,3.70
2023-03-27T13:00:28.067Z,3.30
2023-03-27T13:03:53.564Z,4.57
2023-03-27T13:07:06.321Z,4.28
2023-03-27T13:10:32.174Z,3.67
2023-03-27T13:13:32.645Z,4.55
2023-03-27T13:16:39.150Z,3.35
2023-03-27T13:19:48.212Z,2.92
2023-03-27T13:23:06.627Z,2.35
2023-03-27T13:26:10.576Z,2.08
2023-03-27T13:29:01.590Z,2.25
2023-03-27T13:31:49.608Z,1.85
2023-03-27T13:35:01.812Z,1.85
2023-03-27T13:37:51.916Z,1.90
2023-03-27T13:40:46.106Z,2.00
2023-03-27T13:43:36.084Z,2.13
2023-03-27T13:46:30.998Z,3.35
2023-03-27T13:49:46.971Z,2.90
2023-03-27T13:52:48.324Z,2.42
2023-03-27T13:56:20.288Z,2.10
2023-03-27T14:00:37.617Z,2.30
2023-03-27T14:03:54.740Z,1.73
2023-03-27T14:06:58.718Z,2.22
2023-03-27T14:10:15.787Z,2.13
2023-03-27T14:13:07.623Z,2.10
2023-03-27T14:16:28.277Z,2.13
2023-03-27T14:20:00.571Z,2.80
2023-03-27T14:23:04.808Z,2.80
2023-03-27T14:26:20.001Z,2.92
2023-03-27T14:29:07.098Z,3.47
2023-03-27T14:32:06.100Z,3.90
2023-03-27T14:34:54.791Z,1.95
2023-03-27T14:38:07.896Z,2.60
2023-03-27T14:41:01.551Z,2.67
2023-03-27T14:44:06.179Z,3.65
2023-03-27T14:47:04.953Z,1.80
2023-03-27T14:49:56.759Z,1.95
2023-03-27T14:52:57.822Z,5.38
2023-03-27T14:55:48.611Z,2.08
2023-03-27T14:58:54.872Z,4.97
2023-03-27T15:01:42.088Z,2.33
2023-03-27T15:04:30.316Z,1.23
2023-03-27T15:07:21.084Z,1.88
2023-03-27T15:10:31.737Z,1.95
2023-03-27T15:13:37.889Z,1.85
2023-03-27T15:16:30.033Z,2.90
2023-03-27T15:19:21.855Z,3.85
2023-03-27T15:22:33.749Z,3.30
2023-03-27T15:25:46.296Z,6.47
2023-03-27T15:28:41.869Z,5.63
2023-03-27T15:31:30.210Z,4.38
2023-03-27T15:34:35.222Z,1.60
2023-03-27T15:37:25.859Z,5.68
2023-03-27T15:40:15.623Z,19.88
2023-03-27T15:43:05.521Z,6.15
2023-03-27T15:45:57.136Z,4.32
2023-03-27T15:48:48.352Z,1.40
2023-03-27T15:51:34.227Z,0.60
2023-03-27T15:54:29.261Z,1.08
2023-03-27T15:57:16.152Z,1.10
2023-03-27T16:00:08.973Z,1.40
2023-03-27T16:03:23.072Z,0.60
2023-03-27T16:06:10.488Z,0.90
2023-03-27T16:08:57.198Z,2.35
2023-03-27T16:11:48.676Z,0.70
2023-03-27T16:14:44.161Z,1.70
2023-03-27T16:17:44.779Z,0.70
2023-03-27T16:20:34.282Z,2.75
2023-03-27T16:23:20.241Z,1.08
2023-03-27T16:26:07.323Z,0.90
2023-03-27T16:29:00.754Z,1.00
2023-03-27T16:31:46.529Z,1.00
2023-03-27T16:34:32.113Z,0.80
2023-03-27T16:37:23.681Z,1.10
2023-03-27T16:40:11.625Z,0.90
2023-03-27T16:42:57.733Z,1.17
2023-03-27T16:45:44.947Z,1.70
2023-03-27T16:48:31.232Z,1.00
2023-03-27T16:51:18.068Z,1.48
2023-03-27T16:54:03.985Z,1.17
2023-03-27T16:56:52.265Z,0.90
2023-03-27T16:59:38.358Z,1.13
2023-03-27T17:02:25.591Z,1.30
2023-03-27T17:05:11.994Z,1.30
2023-03-27T17:07:57.843Z,1.00
2023-03-27T17:10:45.002Z,1.15
2023-03-27T17:13:32.850Z,1.00
2023-03-27T17:16:19.838Z,1.00
2023-03-27T17:19:06.337Z,1.13
2023-03-27T17:21:54.183Z,1.40
2023-03-27T17:24:55.205Z,1.42
2023-03-27T17:27:41.568Z,1.52
2023-03-27T17:30:37.302Z,1.33
2023-03-27T17:33:28.633Z,1.38
2023-03-27T17:36:21.656Z,1.40
2023-03-27T17:39:13.710Z,1.40
2023-03-27T17:41:59.459Z,2.22
2023-03-27T17:44:46.321Z,12.98
2023-03-27T17:47:33.273Z,3.30
2023-03-27T17:50:19.420Z,2.80
2023-03-27T17:53:05.362Z,2.50
2023-03-27T17:55:52.076Z,2.22
2023-03-27T17:58:39.157Z,1.90
2023-03-27T18:01:26.618Z,2.10
2023-03-27T18:04:12.741Z,2.17
2023-03-27T18:06:58.861Z,2.35
2023-03-27T18:09:44.852Z,2.20
2023-03-27T18:12:33.752Z,1.50
2023-03-27T18:15:19.311Z,1.50
2023-03-27T18:18:05.477Z,1.60
2023-03-27T18:20:52.348Z,1.65
2023-03-27T18:23:45.905Z,1.80
2023-03-27T18:26:33.299Z,1.77
2023-03-27T18:29:21.268Z,1.80
2023-03-27T18:32:07.329Z,1.80
2023-03-27T18:34:53.185Z,1.70
2023-03-27T18:37:39.478Z,2.00
2023-03-27T18:40:25.827Z,4.35
2023-03-27T18:43:13.749Z,1.95
2023-03-27T18:46:04.353Z,1.67
2023-03-27T18:48:50.921Z,2.63
2023-03-27T18:51:36.927Z,1.95
2023-03-27T18:54:23.212Z,1.98
2023-03-27T18:57:09.319Z,2.05
2023-03-27T18:59:55.339Z,2.15
2023-03-27T19:02:41.199Z,1.65
2023-03-27T19:05:51.360Z,1.77
2023-03-27T19:08:50.112Z,2.00
2023-03-27T19:12:02.132Z,1.80
2023-03-27T19:15:19.322Z,1.63
2023-03-27T19:18:28.405Z,2.25
2023-03-27T19:21:37.140Z,1.52
2023-03-27T19:24:35.496Z,1.90
2023-03-27T19:27:23.241Z,2.50
2023-03-27T19:30:12.442Z,2.20
2023-03-27T19:32:58.419Z,2.30
2023-03-27T19:35:44.706Z,2.20
2023-03-27T19:38:32.187Z,1.98
2023-03-27T19:41:18.189Z,1.80
2023-03-27T19:44:04.334Z,1.60
2023-03-27T19:46:50.529Z,2.00
2023-03-27T19:49:36.953Z,1.55
2023-03-27T19:52:42.716Z,1.73
2023-03-27T19:55:28.538Z,2.05
2023-03-27T19:58:14.535Z,1.95
2023-03-27T20:01:00.600Z,3.17
2023-03-27T20:03:46.569Z,2.60
2023-03-27T20:06:34.055Z,1.60
2023-03-27T20:09:20.399Z,1.85
2023-03-27T20:12:06.805Z,1.85
2023-03-27T20:15:03.573Z,1.65
2023-03-27T20:18:00.301Z,1.60
2023-03-27T20:20:47.839Z,1.63
2023-03-27T20:23:33.651Z,1.17
2023-03-27T20:26:24.208Z,1.23
2023-03-27T20:29:20.471Z,2.75
2023-03-27T20:32:08.280Z,1.95
2023-03-27T20:34:54.786Z,1.40
2023-03-27T20:37:41.910Z,1.23
2023-03-27T20:40:53.272Z,0.77
2023-03-27T20:43:49.990Z,0.90
2023-03-27T20:46:36.206Z,1.10
2023-03-27T20:49:40.190Z,0.85
2023-03-27T20:52:28.480Z,0.73
2023-03-27T20:55:22.813Z,0.32
2023-03-27T20:58:18.285Z,0.60
2023-03-27T21:01:06.947Z,0.50
2023-03-27T21:03:54.087Z,0.88
2023-03-27T21:06:40.815Z,0.60
2023-03-27T21:09:27.577Z,0.50
2023-03-27T21:12:13.673Z,0.60
2023-03-27T21:14:59.664Z,0.50
2023-03-27T21:17:45.503Z,0.50
2023-03-27T21:20:32.732Z,0.60
2023-03-27T21:23:20.824Z,0.40
2023-03-27T21:26:07.029Z,0.60
2023-03-27T21:28:52.925Z,1.52
2023-03-27T21:31:39.683Z,0.70
2023-03-27T21:34:25.870Z,0.57
2023-03-27T21:37:12.037Z,0.90
2023-03-27T21:39:57.582Z,1.13
2023-03-27T21:42:43.492Z,0.40
2023-03-27T21:45:29.211Z,0.70
2023-03-27T21:48:15.142Z,0.40
2023-03-27T21:51:02.431Z,0.63
2023-03-27T21:53:48.390Z,0.40
2023-03-27T21:56:34.174Z,0.65
2023-03-27T21:59:19.991Z,0.60
2023-03-27T22:02:05.746Z,0.50
2023-03-27T22:04:51.702Z,0.70
2023-03-27T22:07:37.389Z,3.15
2023-03-27T22:10:23.155Z,0.57
2023-03-27T22:13:09.172Z,0.60
2023-03-27T22:15:54.959Z,0.70
2023-03-27T22:18:41.429Z,0.73
2023-03-27T22:21:29.427Z,0.75
2023-03-27T22:24:15.504Z,0.57
2023-03-27T22:27:01.134Z,0.80
2023-03-27T22:29:46.856Z,0.63
2023-03-27T22:32:32.757Z,0.70
2023-03-27T22:35:18.822Z,0.75
2023-03-27T22:38:04.785Z,0.90
2023-03-27T22:40:50.371Z,1.15
2023-03-27T22:43:36.216Z,0.82
2023-03-27T22:46:23.407Z,0.90
2023-03-27T22:49:09.375Z,1.00
2023-03-27T22:51:55.308Z,0.75
2023-03-27T22:54:41.690Z,0.98
2023-03-27T22:57:27.657Z,0.98
2023-03-27T23:00:13.905Z,0.60
2023-03-27T23:02:59.915Z,0.90
2023-03-27T23:05:50.943Z,0.90
2023-03-27T23:08:36.989Z,0.90
2023-03-27T23:11:23.138Z,1.13
2023-03-27T23:14:08.799Z,1.10
2023-03-27T23:16:54.673Z,1.20
2023-03-27T23:19:40.990Z,1.45
2023-03-27T23:22:26.838Z,1.40
2023-03-27T23:25:13.814Z,1.60
2023-03-27T23:27:59.747Z,1.45
2023-03-27T23:30:56.853Z,1.38
2023-03-27T23:33:45.215Z,1.70
2023-03-27T23:36:31.221Z,1.70
2023-03-27T23:39:16.901Z,1.70
2023-03-27T23:42:02.725Z,2.70
2023-03-27T23:44:48.522Z,1.60
2023-03-27T23:47:34.379Z,1.45
2023-03-27T23:50:20.022Z,1.70
2023-03-27T23:53:05.888Z,1.60
2023-03-27T23:55:52.688Z,1.73
2023-03-27T23:58:38.873Z,1.80
